createdAt,value
2022-08-28T00:01:01.807Z,24.33
2022-08-28T00:03:47.660Z,24.29
2022-08-28T00:06:33.779Z,24.26
2022-08-28T00:09:19.978Z,24.07
2022-08-28T00:12:07.449Z,24.09
2022-08-28T00:14:53.528Z,24.15
2022-08-28T00:17:40.239Z,23.81
2022-08-28T00:20:28.343Z,24.09
2022-08-28T00:23:15.078Z,24.08
2022-08-28T00:26:01.114Z,23.95
2022-08-28T00:28:46.998Z,24.00
2022-08-28T00:31:34.191Z,23.96
2022-08-28T00:34:20.276Z,23.90
2022-08-28T00:37:18.798Z,23.84
2022-08-28T00:40:05.297Z,23.87
2022-08-28T00:42:52.394Z,23.87
2022-08-28T00:45:40.106Z,23.81
2022-08-28T00:48:26.386Z,23.72
2022-08-28T00:51:31.896Z,23.82
2022-08-28T00:54:19.435Z,23.77
2022-08-28T00:57:09.293Z,23.77
2022-08-28T00:59:55.344Z,23.75
2022-08-28T01:02:41.347Z,23.71
2022-08-28T01:05:28.963Z,23.69
2022-08-28T01:08:16.089Z,23.68
2022-08-28T01:11:05.828Z,23.65
2022-08-28T01:13:54.473Z,23.61
2022-08-28T01:16:42.843Z,23.60
2022-08-28T01:19:39.788Z,23.54
2022-08-28T01:22:59.279Z,23.42
2022-08-28T01:25:45.316Z,23.52
2022-08-28T01:28:31.320Z,23.39
2022-08-28T01:31:18.001Z,23.48
2022-08-28T01:34:04.873Z,23.48
2022-08-28T01:36:51.207Z,23.42
2022-08-28T01:39:37.332Z,23.40
2022-08-28T01:42:26.069Z,23.35
2022-08-28T01:45:15.345Z,23.34
2022-08-28T01:48:01.965Z,23.23
2022-08-28T01:50:48.417Z,23.28
2022-08-28T01:53:35.267Z,23.25
2022-08-28T01:56:21.487Z,23.19
2022-08-28T01:59:09.851Z,23.13
2022-08-28T02:01:55.744Z,23.09
2022-08-28T02:04:43.368Z,22.97
2022-08-28T02:07:32.403Z,23.06
2022-08-28T02:10:19.805Z,22.91
2022-08-28T02:13:07.146Z,22.98
2022-08-28T02:15:53.267Z,22.95
2022-08-28T02:18:39.228Z,22.92
2022-08-28T02:21:25.371Z,22.81
2022-08-28T02:24:11.579Z,22.85
2022-08-28T02:26:57.601Z,22.80
2022-08-28T02:29:44.162Z,22.80
2022-08-28T02:32:30.400Z,22.78
2022-08-28T02:35:18.862Z,22.77
2022-08-28T02:38:04.696Z,22.72
2022-08-28T02:40:52.309Z,22.65
2022-08-28T02:43:38.879Z,22.63
2022-08-28T02:46:25.260Z,22.63
2022-08-28T02:49:11.491Z,22.57
2022-08-28T02:51:58.424Z,22.56
2022-08-28T02:54:46.295Z,22.57
2022-08-28T02:57:32.546Z,22.57
2022-08-28T03:00:22.412Z,22.46
2022-08-28T03:03:08.723Z,22.46
2022-08-28T03:05:55.704Z,22.34
2022-08-28T03:08:42.655Z,22.27
2022-08-28T03:11:28.840Z,22.29
2022-08-28T03:14:14.822Z,22.19
2022-08-28T03:17:01.402Z,22.27
2022-08-28T03:19:47.386Z,22.18
2022-08-28T03:22:51.829Z,22.16
2022-08-28T03:25:38.287Z,22.18
2022-08-28T03:28:26.524Z,22.13
2022-08-28T03:31:15.243Z,21.97
2022-08-28T03:34:01.089Z,22.04
2022-08-28T03:36:47.142Z,22.04
2022-08-28T03:39:32.988Z,21.96
2022-08-28T03:42:18.917Z,22.04
2022-08-28T03:45:07.216Z,22.08
2022-08-28T03:47:53.113Z,22.03
2022-08-28T03:50:40.289Z,22.06
2022-08-28T03:53:29.108Z,21.98
2022-08-28T03:56:17.668Z,22.06
2022-08-28T03:59:05.299Z,22.09
2022-08-28T04:01:51.707Z,21.96
2022-08-28T04:04:37.512Z,22.02
2022-08-28T04:07:23.304Z,22.01
2022-08-28T04:10:09.543Z,22.07
2022-08-28T04:12:56.046Z,22.07
2022-08-28T04:15:42.390Z,22.09
2022-08-28T04:18:29.529Z,21.99
2022-08-28T04:21:23.704Z,22.04
2022-08-28T04:24:10.027Z,21.96
2022-08-28T04:26:56.330Z,21.98
2022-08-28T04:29:42.617Z,21.94
2022-08-28T04:32:28.502Z,21.94
2022-08-28T04:35:14.623Z,21.90
2022-08-28T04:38:02.474Z,21.86
2022-08-28T04:40:50.309Z,21.77
2022-08-28T04:43:36.767Z,21.83
2022-08-28T04:46:23.260Z,21.80
2022-08-28T04:49:09.244Z,21.79
2022-08-28T04:51:55.398Z,21.84
2022-08-28T04:54:41.498Z,21.83
2022-08-28T04:57:27.669Z,21.79
2022-08-28T05:00:14.115Z,21.84
2022-08-28T05:03:00.590Z,21.73
2022-08-28T05:05:52.593Z,21.76
2022-08-28T05:08:38.446Z,21.82
2022-08-28T05:11:34.373Z,21.71
2022-08-28T05:14:21.796Z,21.76
2022-08-28T05:17:08.124Z,21.66
2022-08-28T05:19:54.366Z,21.70
2022-08-28T05:22:40.229Z,21.83
2022-08-28T05:25:26.748Z,21.80
2022-08-28T05:28:13.185Z,21.80
2022-08-28T05:31:11.656Z,21.88
2022-08-28T05:33:59.473Z,21.92
2022-08-28T05:36:45.469Z,21.85
2022-08-28T05:39:31.269Z,21.82
2022-08-28T05:42:17.080Z,21.89
2022-08-28T05:45:03.205Z,21.93
2022-08-28T05:47:51.340Z,22.07
2022-08-28T05:50:39.252Z,22.11
2022-08-28T05:53:27.471Z,22.14
2022-08-28T05:56:16.376Z,22.21
2022-08-28T05:59:03.493Z,22.16
2022-08-28T06:01:50.296Z,22.19
2022-08-28T06:04:40.068Z,22.30
2022-08-28T06:07:26.251Z,22.34
2022-08-28T06:10:12.424Z,22.34
2022-08-28T06:12:58.135Z,22.41
2022-08-28T06:15:45.533Z,22.49
2022-08-28T06:18:31.846Z,22.51
2022-08-28T06:21:18.692Z,22.55
2022-08-28T06:24:05.264Z,22.64
2022-08-28T06:26:52.650Z,22.57
2022-08-28T06:29:42.335Z,22.66
2022-08-28T06:32:28.353Z,22.71
2022-08-28T06:35:14.478Z,22.83
2022-08-28T06:38:01.000Z,22.82
2022-08-28T06:40:49.800Z,22.90
2022-08-28T06:43:36.440Z,22.86
2022-08-28T06:53:19.547Z,22.39
2022-08-28T06:56:13.659Z,22.51
2022-08-28T06:59:12.051Z,22.66
2022-08-28T07:01:58.126Z,22.73
2022-08-28T07:04:44.268Z,22.97
2022-08-28T07:07:31.449Z,23.16
2022-08-28T07:10:18.410Z,23.24
2022-08-28T07:13:05.808Z,23.34
2022-08-28T07:15:51.937Z,23.54
2022-08-28T07:18:38.224Z,23.57
2022-08-28T07:21:24.461Z,23.74
2022-08-28T07:24:12.386Z,23.84
2022-08-28T07:26:58.555Z,23.91
2022-08-28T07:29:44.738Z,24.02
2022-08-28T07:32:30.708Z,24.11
2022-08-28T07:35:17.477Z,24.25
2022-08-28T07:38:03.689Z,24.11
2022-08-28T07:40:49.703Z,24.42
2022-08-28T07:43:54.261Z,24.40
2022-08-28T07:46:40.221Z,24.60
2022-08-28T07:49:27.341Z,24.69
2022-08-28T07:52:13.368Z,24.72
2022-08-28T07:54:59.301Z,24.92
2022-08-28T07:57:45.236Z,24.98
2022-08-28T08:00:31.074Z,25.07
2022-08-28T08:03:17.187Z,25.14
2022-08-28T08:06:05.829Z,25.27
2022-08-28T08:08:51.927Z,25.29
2022-08-28T08:11:38.344Z,25.31
2022-08-28T08:14:24.990Z,25.41
2022-08-28T08:17:11.433Z,25.51
2022-08-28T08:19:57.556Z,25.53
2022-08-28T08:22:43.624Z,25.74
2022-08-28T08:25:29.421Z,25.85
2022-08-28T08:28:21.648Z,25.89
2022-08-28T08:31:16.847Z,25.96
2022-08-28T08:34:04.638Z,26.07
2022-08-28T08:36:50.962Z,26.14
2022-08-28T08:39:37.163Z,26.25
2022-08-28T08:42:26.846Z,26.38
2022-08-28T08:45:15.561Z,26.51
2022-08-28T08:48:03.005Z,26.50
2022-08-28T08:50:49.286Z,26.63
2022-08-28T08:53:48.544Z,26.70
2022-08-28T08:56:35.301Z,26.86
2022-08-28T08:59:26.084Z,26.95
2022-08-28T09:02:19.616Z,26.99
2022-08-28T09:05:08.809Z,27.14
2022-08-28T09:08:02.541Z,27.18
2022-08-28T09:10:55.989Z,27.30
2022-08-28T09:13:55.239Z,27.37
2022-08-28T09:16:43.483Z,27.58
2022-08-28T09:19:30.352Z,27.59
2022-08-28T09:22:16.420Z,27.63
2022-08-28T09:25:05.248Z,27.81
2022-08-28T09:27:53.893Z,27.91
2022-08-28T09:30:41.014Z,28.01
2022-08-28T09:33:32.774Z,28.10
2022-08-28T09:36:31.678Z,28.12
2022-08-28T09:39:19.750Z,28.31
2022-08-28T09:42:33.159Z,28.40
2022-08-28T09:45:23.834Z,28.55
2022-08-28T09:48:24.320Z,28.58
2022-08-28T09:51:13.458Z,28.77
2022-08-28T09:54:24.080Z,28.73
2022-08-28T09:57:10.018Z,28.87
2022-08-28T09:59:56.539Z,28.91
2022-08-28T10:02:51.550Z,29.00
2022-08-28T10:06:02.103Z,28.99
2022-08-28T10:09:27.455Z,29.23
2022-08-28T10:12:28.538Z,29.31
2022-08-28T10:15:30.003Z,29.36
2022-08-28T10:18:31.373Z,29.41
2022-08-28T10:21:31.600Z,29.43
2022-08-28T10:24:26.477Z,29.47
2022-08-28T10:27:37.078Z,29.66
2022-08-28T10:30:24.597Z,29.80
2022-08-28T10:33:20.268Z,29.98
2022-08-28T10:36:27.138Z,29.91
2022-08-28T10:39:31.609Z,30.03
2022-08-28T10:42:36.166Z,29.94
2022-08-28T10:45:24.661Z,30.06
2022-08-28T10:48:27.418Z,30.06
2022-08-28T10:51:39.418Z,30.02
2022-08-28T10:54:37.394Z,30.13
2022-08-28T12:12:47.434Z,30.21
2022-08-28T15:47:32.182Z,34.95
2022-08-28T15:50:19.847Z,34.90
2022-08-28T15:53:06.751Z,34.79
2022-08-28T15:55:53.245Z,34.71
2022-08-28T15:58:39.489Z,34.60
2022-08-28T16:01:25.726Z,34.42
2022-08-28T16:04:12.230Z,34.39
2022-08-28T16:07:00.533Z,34.26
2022-08-28T16:09:46.952Z,34.14
2022-08-28T16:12:34.246Z,33.67
2022-08-28T16:15:21.479Z,33.75
2022-08-28T16:18:09.434Z,33.55
2022-08-28T16:20:55.824Z,33.54
2022-08-28T16:23:42.773Z,33.35
2022-08-28T16:26:29.030Z,33.28
2022-08-28T16:29:15.201Z,33.15
2022-08-28T16:32:01.383Z,33.12
2022-08-28T16:34:47.608Z,33.06
2022-08-28T16:37:36.324Z,32.97
2022-08-28T16:40:26.186Z,32.84
2022-08-28T16:43:12.937Z,32.73
2022-08-28T16:45:58.809Z,32.66
2022-08-28T16:48:45.579Z,32.62
2022-08-28T16:51:31.734Z,32.52
2022-08-28T16:54:18.371Z,32.49
2022-08-28T16:57:04.265Z,32.36
2022-08-28T16:59:53.081Z,32.18
2022-08-28T17:02:40.228Z,32.20
2022-08-28T17:05:26.574Z,32.17
2022-08-28T17:08:13.044Z,32.08
2022-08-28T17:10:59.462Z,31.99
2022-08-28T17:13:46.028Z,31.89
2022-08-28T17:16:32.026Z,31.86
2022-08-28T17:19:19.672Z,31.82
2022-08-28T17:22:27.156Z,31.61
2022-08-28T17:25:13.786Z,31.57
2022-08-28T17:28:00.651Z,31.55
2022-08-28T17:30:47.150Z,31.47
2022-08-28T17:33:35.893Z,31.33
2022-08-28T17:36:33.270Z,31.13
2022-08-28T17:39:20.525Z,31.21
2022-08-28T17:42:06.580Z,31.13
2022-08-28T17:44:52.536Z,31.11
2022-08-28T17:47:38.625Z,31.01
2022-08-28T17:50:24.833Z,31.00
2022-08-28T17:53:11.396Z,30.92
2022-08-28T17:55:57.395Z,30.81
2022-08-28T17:58:43.700Z,30.69
2022-08-28T18:01:29.866Z,30.74
2022-08-28T18:04:22.984Z,30.70
2022-08-28T18:07:10.251Z,30.61
2022-08-28T18:09:56.950Z,30.58
2022-08-28T18:12:42.906Z,30.52
2022-08-28T18:15:29.260Z,30.48
2022-08-28T18:18:16.119Z,30.29
2022-08-28T18:21:02.735Z,30.31
2022-08-28T18:23:48.886Z,30.20
2022-08-28T18:26:35.623Z,30.09
2022-08-28T18:29:22.097Z,30.15
2022-08-28T18:32:09.283Z,30.14
2022-08-28T18:34:55.522Z,30.05
2022-08-28T18:37:42.470Z,29.95
2022-08-28T18:40:28.957Z,29.99
2022-08-28T18:43:17.419Z,29.89
2022-08-28T18:46:04.776Z,29.80
2022-08-28T18:48:53.318Z,29.87
2022-08-28T18:51:41.190Z,29.73
2022-08-28T18:54:28.614Z,29.72
2022-08-28T18:57:15.290Z,29.65
2022-08-28T19:00:01.209Z,29.57
2022-08-28T20:01:37.815Z,25.14
2022-08-28T20:04:24.097Z,25.40
2022-08-28T20:07:11.970Z,25.77
2022-08-28T20:09:58.098Z,25.98
2022-08-28T20:12:48.384Z,26.30
2022-08-28T20:15:35.002Z,26.50
2022-08-28T20:18:21.924Z,26.61
2022-08-28T20:21:11.213Z,26.71
2022-08-28T20:23:57.206Z,26.81
2022-08-28T20:26:43.205Z,26.90
2022-08-28T20:29:29.470Z,27.03
2022-08-28T20:32:15.790Z,26.99
2022-08-28T20:35:03.445Z,27.02
2022-08-28T20:37:49.514Z,27.03
2022-08-28T20:40:36.203Z,27.00
2022-08-28T20:43:21.997Z,27.06
2022-08-28T20:46:08.983Z,26.98
2022-08-28T20:48:54.821Z,27.00
2022-08-28T20:51:56.722Z,26.94
2022-08-28T20:54:43.933Z,26.83
2022-08-28T20:57:29.716Z,26.79
2022-08-28T21:00:15.741Z,26.72
2022-08-28T21:03:02.021Z,26.83
2022-08-28T21:05:49.104Z,26.74
2022-08-28T21:08:35.164Z,26.77
2022-08-28T21:11:21.160Z,26.62
2022-08-28T21:14:07.054Z,26.48
2022-08-28T21:16:52.993Z,26.68
2022-08-28T21:19:40.640Z,26.68
2022-08-28T21:22:26.791Z,26.62
2022-08-28T21:25:13.640Z,26.58
2022-08-28T21:27:59.513Z,26.43
2022-08-28T21:30:50.375Z,26.51
2022-08-28T21:33:37.113Z,26.48
2022-08-28T21:36:23.209Z,26.41
2022-08-28T21:39:09.154Z,26.38
2022-08-28T21:41:55.897Z,26.37
2022-08-28T21:44:43.327Z,26.31
2022-08-28T21:47:38.048Z,26.21
2022-08-28T21:50:24.138Z,26.24
2022-08-28T21:53:09.849Z,26.17
2022-08-28T21:55:55.821Z,26.13
2022-08-28T21:58:41.800Z,26.16
2022-08-28T22:01:28.293Z,26.13
2022-08-28T22:04:14.297Z,26.14
2022-08-28T22:07:00.025Z,26.11
2022-08-28T22:09:46.309Z,26.11
2022-08-28T22:12:32.995Z,26.09
2022-08-28T22:15:19.395Z,26.08
2022-08-28T22:18:06.885Z,26.07
2022-08-28T22:21:11.627Z,26.02
2022-08-28T22:23:57.823Z,25.99
2022-08-28T22:26:44.557Z,26.02
2022-08-28T22:29:36.453Z,25.91
2022-08-28T22:32:25.664Z,25.94
2022-08-28T22:35:12.071Z,25.90
2022-08-28T22:37:58.032Z,25.62
2022-08-28T22:40:44.235Z,25.87
2022-08-28T22:43:30.174Z,25.81
2022-08-28T22:46:16.384Z,25.78
2022-08-28T22:49:02.724Z,25.76
2022-08-28T22:51:49.302Z,25.72
2022-08-28T22:54:35.189Z,25.70
2022-08-28T22:57:21.261Z,25.63
2022-08-28T23:00:13.267Z,25.61
2022-08-28T23:02:59.839Z,25.53
2022-08-28T23:05:45.739Z,25.54
2022-08-28T23:08:34.059Z,25.36
2022-08-28T23:11:19.953Z,25.35
2022-08-28T23:14:06.041Z,25.24
2022-08-28T23:16:55.030Z,25.17
2022-08-28T23:19:41.100Z,25.24
2022-08-28T23:22:28.379Z,25.18
2022-08-28T23:25:17.381Z,25.18
2022-08-28T23:28:06.576Z,25.18
2022-08-28T23:30:52.829Z,25.12
2022-08-28T23:33:38.682Z,25.11
2022-08-28T23:36:24.722Z,25.11
2022-08-28T23:39:10.615Z,25.08
2022-08-28T23:41:56.630Z,25.04
2022-08-28T23:44:42.568Z,25.07
2022-08-28T23:47:28.538Z,24.91
2022-08-28T23:50:21.084Z,24.92
2022-08-28T23:53:07.081Z,24.97
2022-08-28T23:55:54.046Z,24.85
2022-08-28T23:58:43.268Z,24.84
